createdAt,value
2018-12-16T00:35:51.472Z,-2.50
2018-12-16T00:38:24.661Z,-2.55
2018-12-16T00:40:57.274Z,-2.58
2018-12-16T00:43:29.878Z,-2.52
2018-12-16T00:46:02.707Z,-2.46
2018-12-16T00:48:35.302Z,-2.48
2018-12-16T00:51:08.869Z,-2.49
2018-12-16T00:53:41.506Z,-2.56
2018-12-16T00:56:14.144Z,-2.52
2018-12-16T00:58:46.621Z,-2.44
2018-12-16T01:01:19.949Z,-2.47
2018-12-16T01:03:52.664Z,-2.36
2018-12-16T01:06:25.213Z,-2.38
2018-12-16T01:08:57.883Z,-2.30
2018-12-16T01:11:30.422Z,-2.36
2018-12-16T01:14:03.328Z,-2.33
2018-12-16T01:16:37.110Z,-2.32
2018-12-16T01:19:10.354Z,-2.25
2018-12-16T01:21:42.938Z,-2.25
2018-12-16T01:24:15.475Z,-2.27
2018-12-16T01:26:48.086Z,-2.29
2018-12-16T01:29:20.645Z,-2.24
2018-12-16T01:31:53.321Z,-2.14
2018-12-16T01:34:25.888Z,-2.32
2018-12-16T01:36:58.506Z,-2.24
2018-12-16T01:39:31.470Z,-2.19
2018-12-16T01:42:03.994Z,-2.25
2018-12-16T01:44:36.563Z,-2.22
2018-12-16T01:47:09.192Z,-2.21
2018-12-16T01:49:41.874Z,-2.19
2018-12-16T01:52:15.043Z,-2.22
2018-12-16T01:54:47.610Z,-2.18
2018-12-16T01:57:20.148Z,-2.18
2018-12-16T01:59:52.759Z,-2.25
2018-12-16T02:02:25.343Z,-2.16
2018-12-16T02:04:57.957Z,-2.22
2018-12-16T02:07:30.588Z,-2.16
2018-12-16T02:10:04.088Z,-2.20
2018-12-16T02:12:36.799Z,-2.17
2018-12-16T02:15:09.595Z,-2.12
2018-12-16T02:17:44.326Z,-2.14
2018-12-16T02:20:16.915Z,-2.17
2018-12-16T02:22:49.503Z,-2.07
2018-12-16T02:25:22.106Z,-2.13
2018-12-16T02:27:55.140Z,-1.98
2018-12-16T02:30:27.732Z,-2.07
2018-12-16T02:33:00.320Z,-2.05
2018-12-16T02:35:33.045Z,-2.08
2018-12-16T02:38:05.744Z,-2.06
2018-12-16T02:40:38.483Z,-2.06
2018-12-16T02:43:11.027Z,-2.02
2018-12-16T02:45:43.812Z,-2.04
2018-12-16T02:48:17.283Z,-2.03
2018-12-16T02:50:50.398Z,-2.01
2018-12-16T02:53:23.481Z,-2.00
2018-12-16T02:55:56.060Z,-2.01
2018-12-16T02:58:28.735Z,-2.03
2018-12-16T03:01:01.307Z,-2.02
2018-12-16T03:03:35.393Z,-2.01
2018-12-16T03:06:07.903Z,-1.96
2018-12-16T03:08:41.633Z,-2.04
2018-12-16T03:11:14.233Z,-2.02
2018-12-16T03:13:46.923Z,-2.01
2018-12-16T03:16:20.423Z,-1.99
2018-12-16T03:18:53.124Z,-1.97
2018-12-16T03:21:25.615Z,-2.00
2018-12-16T03:23:58.261Z,-1.96
2018-12-16T03:26:35.962Z,-1.97
2018-12-16T03:29:05.427Z,-2.00
2018-12-16T03:31:38.002Z,-2.04
2018-12-16T03:34:10.792Z,-1.98
2018-12-16T03:36:43.444Z,-2.03
2018-12-16T03:39:16.102Z,-1.97
2018-12-16T03:41:48.732Z,-2.01
2018-12-16T03:44:21.827Z,-2.04
2018-12-16T03:46:55.071Z,-1.97
2018-12-16T03:49:27.664Z,-1.99
2018-12-16T03:52:00.219Z,-1.91
2018-12-16T03:54:32.830Z,-1.96
2018-12-16T03:57:05.397Z,-1.93
2018-12-16T03:59:37.909Z,-1.97
2018-12-16T04:02:10.533Z,-1.91
2018-12-16T04:04:43.039Z,-1.99
2018-12-16T04:07:15.650Z,-2.02
2018-12-16T04:09:48.211Z,-1.98
2018-12-16T04:12:20.780Z,-1.96
2018-12-16T04:14:55.254Z,-2.01
2018-12-16T04:17:27.825Z,-1.97
2018-12-16T04:20:00.385Z,-1.95
2018-12-16T04:22:32.911Z,-1.99
2018-12-16T04:25:06.198Z,-2.01
2018-12-16T04:27:38.796Z,-1.97
2018-12-16T04:30:11.384Z,-1.92
2018-12-16T04:32:43.957Z,-1.90
2018-12-16T04:35:16.570Z,-1.93
2018-12-16T04:37:49.132Z,-1.94
2018-12-16T04:40:21.697Z,-1.89
2018-12-16T04:42:54.302Z,-1.86
2018-12-16T04:45:27.712Z,-1.91
2018-12-16T04:48:00.282Z,-1.79
2018-12-16T04:50:32.954Z,-1.81
2018-12-16T04:53:05.645Z,-1.83
2018-12-16T04:55:38.205Z,-1.85
2018-12-16T04:58:10.803Z,-1.86
2018-12-16T05:00:44.789Z,-1.81
2018-12-16T05:03:17.300Z,-1.80
2018-12-16T05:05:49.834Z,-1.77
2018-12-16T05:08:22.425Z,-1.76
2018-12-16T05:10:55.053Z,-1.81
2018-12-16T05:13:28.250Z,-1.79
2018-12-16T05:16:00.839Z,-1.74
2018-12-16T05:18:33.977Z,-1.82
2018-12-16T05:21:06.561Z,-1.82
2018-12-16T05:23:41.982Z,-1.78
2018-12-16T05:26:13.721Z,-1.74
2018-12-16T05:28:46.321Z,-1.74
2018-12-16T05:31:18.851Z,-1.67
2018-12-16T05:33:52.177Z,-1.68
2018-12-16T05:36:24.799Z,-1.73
2018-12-16T05:38:58.776Z,-1.70
2018-12-16T05:41:32.533Z,-1.67
2018-12-16T05:44:05.136Z,-1.60
2018-12-16T05:46:37.744Z,-1.73
2018-12-16T05:49:10.332Z,-1.73
2018-12-16T05:51:42.898Z,-1.64
2018-12-16T05:54:15.469Z,-1.46
2018-12-16T05:56:48.033Z,-1.59
2018-12-16T05:59:20.633Z,-1.53
2018-12-16T06:01:53.104Z,-1.56
2018-12-16T06:04:25.691Z,-1.56
2018-12-16T06:06:58.265Z,-1.48
2018-12-16T06:09:30.846Z,-1.43
2018-12-16T06:12:03.550Z,-1.51
2018-12-16T06:14:36.140Z,-1.48
2018-12-16T06:17:08.697Z,-1.52
2018-12-16T06:19:41.276Z,-1.47
2018-12-16T06:22:13.797Z,-1.50
2018-12-16T06:24:46.379Z,-1.48
2018-12-16T06:27:18.942Z,-1.53
2018-12-16T06:29:51.880Z,-1.47
2018-12-16T06:32:24.526Z,-1.41
2018-12-16T06:34:57.112Z,-1.49
2018-12-16T06:37:29.687Z,-1.43
2018-12-16T06:40:02.381Z,-1.40
2018-12-16T06:42:35.614Z,-1.35
2018-12-16T06:45:08.236Z,-1.46
2018-12-16T06:47:40.786Z,-1.50
2018-12-16T06:50:13.384Z,-1.41
2018-12-16T06:52:45.937Z,-1.46
2018-12-16T06:55:18.503Z,-1.47
2018-12-16T06:57:51.223Z,-1.45
2018-12-16T07:00:23.855Z,-1.48
2018-12-16T07:02:56.469Z,-1.46
2018-12-16T07:05:29.075Z,-1.48
2018-12-16T07:08:01.632Z,-1.48
2018-12-16T07:10:34.576Z,-1.44
2018-12-16T07:13:07.159Z,-1.38
2018-12-16T07:15:39.739Z,-1.45
2018-12-16T07:18:12.420Z,-1.53
2018-12-16T07:20:45.766Z,-1.53
2018-12-16T07:23:18.578Z,-1.56
2018-12-16T07:25:51.257Z,-1.76
2018-12-16T07:28:23.873Z,-1.81
2018-12-16T07:30:56.441Z,-1.86
2018-12-16T07:33:28.961Z,-1.95
2018-12-16T07:36:01.591Z,-1.92
2018-12-16T07:38:34.158Z,-2.02
2018-12-16T07:41:06.997Z,-1.99
2018-12-16T07:43:40.187Z,-1.98
2018-12-16T07:46:12.761Z,-2.02
2018-12-16T07:48:45.895Z,-1.96
2018-12-16T07:51:18.442Z,-1.96
2018-12-16T07:53:50.967Z,-1.96
2018-12-16T07:56:23.599Z,-2.08
2018-12-16T07:58:56.193Z,-2.08
2018-12-16T08:01:28.920Z,-2.19
2018-12-16T08:04:01.621Z,-2.24
2018-12-16T08:06:34.377Z,-2.26
2018-12-16T08:09:07.243Z,-2.27
2018-12-16T08:11:44.751Z,-2.29
2018-12-16T08:14:17.303Z,-2.40
2018-12-16T08:16:50.823Z,-2.34
2018-12-16T08:19:23.551Z,-2.35
2018-12-16T08:21:56.252Z,-2.55
2018-12-16T08:24:28.822Z,-2.48
2018-12-16T08:27:02.107Z,-2.52
2018-12-16T08:29:36.427Z,-2.42
2018-12-16T08:32:09.103Z,-2.41
2018-12-16T08:34:43.398Z,-2.56
2018-12-16T08:37:16.011Z,-2.41
2018-12-16T08:39:48.560Z,-2.50
2018-12-16T08:42:21.157Z,-2.47
2018-12-16T08:44:53.779Z,-2.52
2018-12-16T08:47:32.912Z,-2.46
2018-12-16T08:50:00.975Z,-2.38
2018-12-16T08:52:33.664Z,-2.42
2018-12-16T08:55:06.469Z,-2.44
2018-12-16T08:57:40.303Z,-2.35
2018-12-16T09:00:12.922Z,-2.44
2018-12-16T09:02:45.585Z,-2.50
2018-12-16T09:05:19.822Z,-2.34
2018-12-16T09:07:53.070Z,-2.33
2018-12-16T09:10:26.467Z,-2.40
2018-12-16T09:12:59.237Z,-2.27
2018-12-16T09:15:32.517Z,-2.28
2018-12-16T09:18:05.210Z,-2.33
2018-12-16T09:20:37.848Z,-2.30
2018-12-16T09:23:10.579Z,-2.27
2018-12-16T09:25:43.909Z,-2.23
2018-12-16T09:28:16.448Z,-2.36
2018-12-16T09:37:38.373Z,-2.30
2018-12-16T09:40:11.080Z,-2.21
2018-12-16T09:42:43.807Z,-2.10
2018-12-16T09:45:16.469Z,-2.19
2018-12-16T09:47:50.082Z,-2.20
2018-12-16T09:50:22.944Z,-2.23
2018-12-16T09:52:55.905Z,-2.14
2018-12-16T09:55:28.611Z,-2.08
2018-12-16T09:58:01.389Z,-2.13
2018-12-16T10:00:34.040Z,-2.13
2018-12-16T10:03:07.237Z,-2.24
2018-12-16T10:05:40.481Z,-2.02
2018-12-16T10:08:13.113Z,-2.26
2018-12-16T10:10:45.706Z,-2.27
2018-12-16T10:13:18.392Z,-2.11
2018-12-16T10:19:27.193Z,-1.83
2018-12-16T10:22:00.858Z,-1.87
2018-12-16T10:24:33.620Z,-1.76
2018-12-16T10:27:06.343Z,-1.65
2018-12-16T10:29:39.203Z,-1.72
2018-12-16T10:32:11.977Z,-1.74
2018-12-16T10:34:47.734Z,-1.66
2018-12-16T10:37:20.526Z,-1.77
2018-12-16T10:39:53.255Z,-1.56
2018-12-16T10:42:25.961Z,-1.56
2018-12-16T10:44:58.613Z,-1.63
2018-12-16T10:47:33.023Z,-1.92
2018-12-16T10:50:06.693Z,-1.81
2018-12-16T10:52:39.974Z,-1.80
2018-12-16T10:55:12.685Z,-1.72
2018-12-16T10:57:45.476Z,-1.52
2018-12-16T11:00:24.956Z,-1.72
2018-12-16T11:02:57.804Z,-1.47
2018-12-16T11:05:30.710Z,-1.54
2018-12-16T11:08:03.986Z,-1.65
2018-12-16T11:10:36.814Z,-1.55
2018-12-16T11:13:10.164Z,-1.66
2018-12-16T11:15:42.852Z,-1.57
2018-12-16T11:18:15.712Z,-1.42
2018-12-16T11:20:48.422Z,-1.31
2018-12-16T22:38:31.543Z,-0.10
2018-12-16T22:41:04.231Z,-0.08
2018-12-16T22:43:36.862Z,-0.10
2018-12-16T22:46:09.783Z,-0.12
2018-12-16T22:48:42.497Z,-0.09
2018-12-16T22:51:16.728Z,-0.07
2018-12-16T22:53:50.962Z,-0.03
2018-12-16T22:56:23.686Z,-0.05
2018-12-16T22:58:56.286Z,0.03
2018-12-16T23:01:28.900Z,0.11
2018-12-16T23:04:01.774Z,-0.12
2018-12-16T23:06:34.489Z,-0.11
2018-12-16T23:09:07.223Z,-0.11
2018-12-16T23:11:41.810Z,-0.11
2018-12-16T23:14:14.549Z,-0.10
2018-12-16T23:16:47.229Z,-0.02
2018-12-16T23:19:19.957Z,-0.06
2018-12-16T23:21:56.571Z,0.04
2018-12-16T23:24:30.395Z,0.11
2018-12-16T23:27:03.595Z,0.16
2018-12-16T23:29:36.706Z,0.17
2018-12-16T23:32:09.346Z,0.46
2018-12-16T23:34:41.921Z,0.33
2018-12-16T23:37:18.625Z,0.42
2018-12-16T23:39:53.236Z,0.50
2018-12-16T23:42:25.896Z,0.60
2018-12-16T23:44:58.590Z,0.61
2018-12-16T23:47:31.146Z,0.61
2018-12-16T23:50:05.317Z,0.57
2018-12-16T23:52:39.057Z,0.53
2018-12-16T23:55:11.923Z,0.61
2018-12-16T23:57:44.738Z,0.68
